sensor_id;sensor_type;location;lat;lon;timestamp;temperature;humidity
36594;DHT22;22603;47.900;8.146;2022-09-09T00:02:39;9.40;99.90
36594;DHT22;22603;47.900;8.146;2022-09-09T00:05:36;9.40;99.90
36594;DHT22;22603;47.900;8.146;2022-09-09T00:08:34;9.40;99.90
36594;DHT22;22603;47.900;8.146;2022-09-09T00:11:30;9.30;99.90
36594;DHT22;22603;47.900;8.146;2022-09-09T00:14:25;9.30;99.90
36594;DHT22;22603;47.900;8.146;2022-09-09T00:17:21;9.20;99.90
36594;DHT22;22603;47.900;8.146;2022-09-09T00:20:13;9.10;99.90
36594;DHT22;22603;47.900;8.146;2022-09-09T00:23:04;9.10;99.90
36594;DHT22;22603;47.900;8.146;2022-09-09T00:26:03;9.10;99.90
36594;DHT22;22603;47.900;8.146;2022-09-09T00:28:57;9.10;99.90
36594;DHT22;22603;47.900;8.146;2022-09-09T00:31:47;9.10;99.90
36594;DHT22;22603;47.900;8.146;2022-09-09T00:34:35;9.10;99.90
36594;DHT22;22603;47.900;8.146;2022-09-09T00:37:24;9.10;99.90
36594;DHT22;22603;47.900;8.146;2022-09-09T00:40:22;9.10;99.90
36594;DHT22;22603;47.900;8.146;2022-09-09T00:43:24;9.10;99.90
36594;DHT22;22603;47.900;8.146;2022-09-09T00:46:38;9.20;99.90
36594;DHT22;22603;47.900;8.146;2022-09-09T00:49:37;9.30;99.90
36594;DHT22;22603;47.900;8.146;2022-09-09T00:52:33;9.30;99.90
36594;DHT22;22603;47.900;8.146;2022-09-09T00:55:28;9.40;99.90
36594;DHT22;22603;47.900;8.146;2022-09-09T00:58:22;9.50;99.90
36594;DHT22;22603;47.900;8.146;2022-09-09T01:01:10;9.70;99.90
36594;DHT22;22603;47.900;8.146;2022-09-09T01:03:58;9.70;99.90
36594;DHT22;22603;47.900;8.146;2022-09-09T01:06:48;9.80;99.90
36594;DHT22;22603;47.900;8.146;2022-09-09T01:09:54;9.90;99.90
36594;DHT22;22603;47.900;8.146;2022-09-09T01:12:43;10.00;99.90
36594;DHT22;22603;47.900;8.146;2022-09-09T01:15:34;10.10;99.90
36594;DHT22;22603;47.900;8.146;2022-09-09T01:18:25;10.20;99.90
36594;DHT22;22603;47.900;8.146;2022-09-09T01:21:21;10.30;99.90
36594;DHT22;22603;47.900;8.146;2022-09-09T01:24:21;10.30;99.90
36594;DHT22;22603;47.900;8.146;2022-09-09T01:27:10;10.30;99.90
36594;DHT22;22603;47.900;8.146;2022-09-09T01:29:59;10.30;99.90
36594;DHT22;22603;47.900;8.146;2022-09-09T01:32:48;10.30;99.90
36594;DHT22;22603;47.900;8.146;2022-09-09T01:35:44;10.40;99.90
36594;DHT22;22603;47.900;8.146;2022-09-09T01:38:34;10.40;99.90
36594;DHT22;22603;47.900;8.146;2022-09-09T01:41:24;10.40;99.90
36594;DHT22;22603;47.900;8.146;2022-09-09T01:44:13;10.60;99.90
36594;DHT22;22603;47.900;8.146;2022-09-09T01:47:02;10.70;99.90
36594;DHT22;22603;47.900;8.146;2022-09-09T01:49:50;10.70;99.90
36594;DHT22;22603;47.900;8.146;2022-09-09T01:52:37;10.80;99.90
36594;DHT22;22603;47.900;8.146;2022-09-09T01:55:29;11.10;99.90
36594;DHT22;22603;47.900;8.146;2022-09-09T01:58:27;11.20;99.90
36594;DHT22;22603;47.900;8.146;2022-09-09T02:01:36;11.20;99.90
36594;DHT22;22603;47.900;8.146;2022-09-09T02:04:37;11.20;99.90
36594;DHT22;22603;47.900;8.146;2022-09-09T02:07:38;11.30;99.90
36594;DHT22;22603;47.900;8.146;2022-09-09T02:10:31;11.30;99.90
36594;DHT22;22603;47.900;8.146;2022-09-09T02:13:20;11.40;99.90
36594;DHT22;22603;47.900;8.146;2022-09-09T02:16:10;11.50;99.90
36594;DHT22;22603;47.900;8.146;2022-09-09T02:19:06;11.50;99.90
36594;DHT22;22603;47.900;8.146;2022-09-09T02:21:56;11.50;99.90
36594;DHT22;22603;47.900;8.146;2022-09-09T02:24:44;11.50;99.90
36594;DHT22;22603;47.900;8.146;2022-09-09T02:27:35;11.50;99.90
36594;DHT22;22603;47.900;8.146;2022-09-09T02:30:22;11.50;99.90
36594;DHT22;22603;47.900;8.146;2022-09-09T02:33:09;11.60;99.90
36594;DHT22;22603;47.900;8.146;2022-09-09T02:35:59;11.70;99.90
36594;DHT22;22603;47.900;8.146;2022-09-09T02:38:48;11.80;99.90
36594;DHT22;22603;47.900;8.146;2022-09-09T02:41:40;11.90;99.90
36594;DHT22;22603;47.900;8.146;2022-09-09T02:44:27;11.90;99.90
36594;DHT22;22603;47.900;8.146;2022-09-09T02:47:25;11.90;99.90
36594;DHT22;22603;47.900;8.146;2022-09-09T02:50:16;11.80;99.90
36594;DHT22;22603;47.900;8.146;2022-09-09T02:53:12;11.80;99.90
36594;DHT22;22603;47.900;8.146;2022-09-09T02:56:04;11.70;99.90
36594;DHT22;22603;47.900;8.146;2022-09-09T02:58:52;11.70;99.90
36594;DHT22;22603;47.900;8.146;2022-09-09T03:01:40;11.70;99.90
36594;DHT22;22603;47.900;8.146;2022-09-09T03:04:27;11.70;99.90
36594;DHT22;22603;47.900;8.146;2022-09-09T03:07:14;11.70;99.90
36594;DHT22;22603;47.900;8.146;2022-09-09T03:10:03;11.70;99.90
36594;DHT22;22603;47.900;8.146;2022-09-09T03:12:50;11.70;99.90
36594;DHT22;22603;47.900;8.146;2022-09-09T03:15:37;11.70;99.90
36594;DHT22;22603;47.900;8.146;2022-09-09T03:18:24;11.80;99.90
36594;DHT22;22603;47.900;8.146;2022-09-09T03:21:11;11.90;99.90
36594;DHT22;22603;47.900;8.146;2022-09-09T03:23:58;11.90;99.90
36594;DHT22;22603;47.900;8.146;2022-09-09T03:26:46;11.90;99.90
36594;DHT22;22603;47.900;8.146;2022-09-09T03:29:33;11.90;99.90
36594;DHT22;22603;47.900;8.146;2022-09-09T03:32:20;12.00;99.90
36594;DHT22;22603;47.900;8.146;2022-09-09T03:35:08;12.00;99.90
36594;DHT22;22603;47.900;8.146;2022-09-09T03:37:55;12.00;99.90
36594;DHT22;22603;47.900;8.146;2022-09-09T03:40:48;12.00;99.90
36594;DHT22;22603;47.900;8.146;2022-09-09T03:43:38;12.00;99.90
36594;DHT22;22603;47.900;8.146;2022-09-09T03:46:25;12.00;99.90
36594;DHT22;22603;47.900;8.146;2022-09-09T03:49:12;12.10;99.90
36594;DHT22;22603;47.900;8.146;2022-09-09T03:51:59;12.10;99.90
36594;DHT22;22603;47.900;8.146;2022-09-09T03:54:46;12.20;99.90
36594;DHT22;22603;47.900;8.146;2022-09-09T03:57:33;12.20;99.90
36594;DHT22;22603;47.900;8.146;2022-09-09T04:00:22;12.30;99.90
36594;DHT22;22603;47.900;8.146;2022-09-09T04:03:09;12.30;99.90
36594;DHT22;22603;47.900;8.146;2022-09-09T04:05:58;12.40;99.90
36594;DHT22;22603;47.900;8.146;2022-09-09T04:08:45;12.40;99.90
36594;DHT22;22603;47.900;8.146;2022-09-09T04:11:34;12.40;99.90
36594;DHT22;22603;47.900;8.146;2022-09-09T04:14:22;12.50;99.90
36594;DHT22;22603;47.900;8.146;2022-09-09T04:17:15;12.50;99.90
36594;DHT22;22603;47.900;8.146;2022-09-09T04:20:02;12.60;99.90
36594;DHT22;22603;47.900;8.146;2022-09-09T04:22:49;12.60;99.90
36594;DHT22;22603;47.900;8.146;2022-09-09T04:25:37;12.50;99.90
36594;DHT22;22603;47.900;8.146;2022-09-09T04:28:26;12.40;99.90
36594;DHT22;22603;47.900;8.146;2022-09-09T04:31:16;12.40;99.90
36594;DHT22;22603;47.900;8.146;2022-09-09T04:34:05;12.40;99.90
36594;DHT22;22603;47.900;8.146;2022-09-09T04:36:52;12.40;99.90
36594;DHT22;22603;47.900;8.146;2022-09-09T04:39:38;12.40;99.90
36594;DHT22;22603;47.900;8.146;2022-09-09T04:42:25;12.50;99.90
36594;DHT22;22603;47.900;8.146;2022-09-09T04:45:12;12.60;99.90
36594;DHT22;22603;47.900;8.146;2022-09-09T04:47:59;12.70;99.90
36594;DHT22;22603;47.900;8.146;2022-09-09T04:50:56;12.80;99.90
36594;DHT22;22603;47.900;8.146;2022-09-09T04:53:43;12.80;99.90
36594;DHT22;22603;47.900;8.146;2022-09-09T04:56:30;12.80;99.90
36594;DHT22;22603;47.900;8.146;2022-09-09T04:59:21;12.80;99.90
36594;DHT22;22603;47.900;8.146;2022-09-09T05:02:08;12.80;99.90
36594;DHT22;22603;47.900;8.146;2022-09-09T05:04:55;12.70;99.90
36594;DHT22;22603;47.900;8.146;2022-09-09T05:07:44;12.70;99.90
36594;DHT22;22603;47.900;8.146;2022-09-09T05:10:33;12.80;99.90
36594;DHT22;22603;47.900;8.146;2022-09-09T05:13:21;12.80;99.90
36594;DHT22;22603;47.900;8.146;2022-09-09T05:16:08;12.80;99.90
36594;DHT22;22603;47.900;8.146;2022-09-09T05:18:57;12.80;99.90
36594;DHT22;22603;47.900;8.146;2022-09-09T05:21:45;12.80;99.90
36594;DHT22;22603;47.900;8.146;2022-09-09T05:24:33;12.70;99.90
36594;DHT22;22603;47.900;8.146;2022-09-09T05:27:20;12.70;99.90
36594;DHT22;22603;47.900;8.146;2022-09-09T05:30:09;12.80;99.90
36594;DHT22;22603;47.900;8.146;2022-09-09T05:32:56;12.80;99.90
36594;DHT22;22603;47.900;8.146;2022-09-09T05:35:43;12.80;99.90
36594;DHT22;22603;47.900;8.146;2022-09-09T05:38:31;12.80;99.90
36594;DHT22;22603;47.900;8.146;2022-09-09T05:41:20;12.90;99.90
36594;DHT22;22603;47.900;8.146;2022-09-09T05:44:08;12.90;99.90
36594;DHT22;22603;47.900;8.146;2022-09-09T05:46:55;12.90;99.90
36594;DHT22;22603;47.900;8.146;2022-09-09T05:49:43;12.90;99.90
36594;DHT22;22603;47.900;8.146;2022-09-09T05:52:31;12.90;99.90
36594;DHT22;22603;47.900;8.146;2022-09-09T05:55:18;12.90;99.90
36594;DHT22;22603;47.900;8.146;2022-09-09T05:58:06;13.00;99.90
36594;DHT22;22603;47.900;8.146;2022-09-09T06:01:00;13.10;99.90
36594;DHT22;22603;47.900;8.146;2022-09-09T06:03:48;13.20;99.90
36594;DHT22;22603;47.900;8.146;2022-09-09T06:06:37;13.30;99.90
36594;DHT22;22603;47.900;8.146;2022-09-09T06:09:24;13.50;99.90
36594;DHT22;22603;47.900;8.146;2022-09-09T06:12:11;13.70;99.90
36594;DHT22;22603;47.900;8.146;2022-09-09T06:15:00;13.80;99.90
36594;DHT22;22603;47.900;8.146;2022-09-09T06:17:46;13.90;99.90
36594;DHT22;22603;47.900;8.146;2022-09-09T06:20:34;13.90;99.90
36594;DHT22;22603;47.900;8.146;2022-09-09T06:23:21;13.90;99.90
36594;DHT22;22603;47.900;8.146;2022-09-09T06:26:11;13.90;99.90
36594;DHT22;22603;47.900;8.146;2022-09-09T06:28:59;13.90;99.90
36594;DHT22;22603;47.900;8.146;2022-09-09T06:31:50;13.90;99.90
36594;DHT22;22603;47.900;8.146;2022-09-09T06:34:37;14.10;99.90
36594;DHT22;22603;47.900;8.146;2022-09-09T06:37:24;14.10;99.90
36594;DHT22;22603;47.900;8.146;2022-09-09T06:40:12;14.20;99.90
36594;DHT22;22603;47.900;8.146;2022-09-09T06:43:00;14.20;99.90
36594;DHT22;22603;47.900;8.146;2022-09-09T06:45:53;14.10;99.90
36594;DHT22;22603;47.900;8.146;2022-09-09T06:48:43;14.10;99.90
36594;DHT22;22603;47.900;8.146;2022-09-09T06:51:32;14.00;99.90
36594;DHT22;22603;47.900;8.146;2022-09-09T06:54:20;13.90;99.90
36594;DHT22;22603;47.900;8.146;2022-09-09T06:57:07;13.80;99.90
36594;DHT22;22603;47.900;8.146;2022-09-09T07:00:15;13.70;99.90
36594;DHT22;22603;47.900;8.146;2022-09-09T07:03:02;13.70;99.90
36594;DHT22;22603;47.900;8.146;2022-09-09T07:05:56;13.60;99.90
36594;DHT22;22603;47.900;8.146;2022-09-09T07:08:43;13.60;99.90
36594;DHT22;22603;47.900;8.146;2022-09-09T07:11:42;13.60;99.90
36594;DHT22;22603;47.900;8.146;2022-09-09T07:14:29;13.60;99.90
36594;DHT22;22603;47.900;8.146;2022-09-09T07:17:16;13.70;99.90
36594;DHT22;22603;47.900;8.146;2022-09-09T07:20:03;13.80;99.90
36594;DHT22;22603;47.900;8.146;2022-09-09T07:22:54;13.90;99.90
36594;DHT22;22603;47.900;8.146;2022-09-09T07:25:44;14.10;99.90
36594;DHT22;22603;47.900;8.146;2022-09-09T07:28:31;14.50;99.90
36594;DHT22;22603;47.900;8.146;2022-09-09T07:31:19;15.60;99.90
36594;DHT22;22603;47.900;8.146;2022-09-09T07:34:07;16.30;99.90
36594;DHT22;22603;47.900;8.146;2022-09-09T07:36:53;16.20;99.90
36594;DHT22;22603;47.900;8.146;2022-09-09T07:39:44;16.30;99.90
36594;DHT22;22603;47.900;8.146;2022-09-09T07:42:33;16.00;99.90
36594;DHT22;22603;47.900;8.146;2022-09-09T07:45:21;16.00;99.90
36594;DHT22;22603;47.900;8.146;2022-09-09T07:48:08;15.70;99.90
36594;DHT22;22603;47.900;8.146;2022-09-09T07:51:07;15.80;99.90
36594;DHT22;22603;47.900;8.146;2022-09-09T07:53:57;16.40;99.90
36594;DHT22;22603;47.900;8.146;2022-09-09T07:56:45;16.40;99.90
36594;DHT22;22603;47.900;8.146;2022-09-09T07:59:33;16.10;99.90
36594;DHT22;22603;47.900;8.146;2022-09-09T08:02:20;15.80;99.90
36594;DHT22;22603;47.900;8.146;2022-09-09T08:05:06;15.50;99.90
36594;DHT22;22603;47.900;8.146;2022-09-09T08:07:54;15.40;99.90
36594;DHT22;22603;47.900;8.146;2022-09-09T08:10:40;15.30;99.90
36594;DHT22;22603;47.900;8.146;2022-09-09T08:13:28;15.40;99.90
36594;DHT22;22603;47.900;8.146;2022-09-09T08:16:19;16.10;99.90
36594;DHT22;22603;47.900;8.146;2022-09-09T08:19:07;16.30;99.90
36594;DHT22;22603;47.900;8.146;2022-09-09T08:21:55;16.30;99.90
36594;DHT22;22603;47.900;8.146;2022-09-09T08:24:42;17.30;99.90
36594;DHT22;22603;47.900;8.146;2022-09-09T08:27:29;18.10;99.90
36594;DHT22;22603;47.900;8.146;2022-09-09T08:30:18;18.30;99.90
36594;DHT22;22603;47.900;8.146;2022-09-09T08:33:05;17.70;99.90
36594;DHT22;22603;47.900;8.146;2022-09-09T08:35:53;16.90;99.90
36594;DHT22;22603;47.900;8.146;2022-09-09T08:38:40;16.40;99.90
36594;DHT22;22603;47.900;8.146;2022-09-09T08:41:51;16.00;99.90
36594;DHT22;22603;47.900;8.146;2022-09-09T08:44:58;15.80;99.90
36594;DHT22;22603;47.900;8.146;2022-09-09T08:48:00;15.70;99.90
36594;DHT22;22603;47.900;8.146;2022-09-09T08:50:49;16.00;99.90
36594;DHT22;22603;47.900;8.146;2022-09-09T08:53:41;17.60;99.90
36594;DHT22;22603;47.900;8.146;2022-09-09T08:56:32;18.60;99.90
36594;DHT22;22603;47.900;8.146;2022-09-09T08:59:19;19.60;99.90
36594;DHT22;22603;47.900;8.146;2022-09-09T09:02:14;19.50;99.90
36594;DHT22;22603;47.900;8.146;2022-09-09T09:05:14;20.00;99.90
36594;DHT22;22603;47.900;8.146;2022-09-09T09:08:10;20.40;99.90
36594;DHT22;22603;47.900;8.146;2022-09-09T09:10:59;20.60;99.90
36594;DHT22;22603;47.900;8.146;2022-09-09T09:13:50;19.80;99.90
36594;DHT22;22603;47.900;8.146;2022-09-09T09:16:46;19.80;99.90
36594;DHT22;22603;47.900;8.146;2022-09-09T09:19:35;20.30;99.90
36594;DHT22;22603;47.900;8.146;2022-09-09T09:22:30;20.00;99.90
36594;DHT22;22603;47.900;8.146;2022-09-09T09:25:21;19.60;99.90
36594;DHT22;22603;47.900;8.146;2022-09-09T09:28:13;20.50;99.90
36594;DHT22;22603;47.900;8.146;2022-09-09T09:31:05;21.10;99.90
36594;DHT22;22603;47.900;8.146;2022-09-09T09:33:54;21.40;99.90
36594;DHT22;22603;47.900;8.146;2022-09-09T09:36:44;21.40;99.90
36594;DHT22;22603;47.900;8.146;2022-09-09T09:39:34;21.00;99.90
36594;DHT22;22603;47.900;8.146;2022-09-09T09:42:49;20.50;99.90
36594;DHT22;22603;47.900;8.146;2022-09-09T09:45:42;20.20;99.90
36594;DHT22;22603;47.900;8.146;2022-09-09T09:48:45;20.60;99.90
36594;DHT22;22603;47.900;8.146;2022-09-09T09:51:42;21.70;99.90
36594;DHT22;22603;47.900;8.146;2022-09-09T09:54:30;22.50;99.90
36594;DHT22;22603;47.900;8.146;2022-09-09T09:57:26;22.80;99.90
36594;DHT22;22603;47.900;8.146;2022-09-09T10:00:16;22.80;99.90
36594;DHT22;22603;47.900;8.146;2022-09-09T10:03:18;22.00;99.90
36594;DHT22;22603;47.900;8.146;2022-09-09T10:06:07;22.60;99.90
36594;DHT22;22603;47.900;8.146;2022-09-09T10:08:55;21.60;99.90
36594;DHT22;22603;47.900;8.146;2022-09-09T10:11:46;21.60;99.90
36594;DHT22;22603;47.900;8.146;2022-09-09T10:14:44;21.40;99.90
36594;DHT22;22603;47.900;8.146;2022-09-09T10:17:40;21.40;99.90
36594;DHT22;22603;47.900;8.146;2022-09-09T10:20:35;21.50;99.90
36594;DHT22;22603;47.900;8.146;2022-09-09T10:23:46;22.80;99.90
36594;DHT22;22603;47.900;8.146;2022-09-09T10:26:42;22.00;99.90
36594;DHT22;22603;47.900;8.146;2022-09-09T10:29:44;21.90;99.90
36594;DHT22;22603;47.900;8.146;2022-09-09T10:32:41;22.30;99.90
36594;DHT22;22603;47.900;8.146;2022-09-09T10:35:30;22.50;99.90
36594;DHT22;22603;47.900;8.146;2022-09-09T10:38:22;22.60;99.90
36594;DHT22;22603;47.900;8.146;2022-09-09T10:41:16;22.30;99.90
36594;DHT22;22603;47.900;8.146;2022-09-09T10:47:21;22.30;99.90
36594;DHT22;22603;47.900;8.146;2022-09-09T10:50:29;23.50;99.90
36594;DHT22;22603;47.900;8.146;2022-09-09T10:53:48;24.00;99.90
36594;DHT22;22603;47.900;8.146;2022-09-09T10:56:39;23.30;99.90
36594;DHT22;22603;47.900;8.146;2022-09-09T10:59:30;23.30;99.90
36594;DHT22;22603;47.900;8.146;2022-09-09T11:02:34;23.90;99.90
36594;DHT22;22603;47.900;8.146;2022-09-09T11:05:27;23.80;99.90
36594;DHT22;22603;47.900;8.146;2022-09-09T11:08:18;23.50;99.90
36594;DHT22;22603;47.900;8.146;2022-09-09T11:11:15;23.20;99.90
36594;DHT22;22603;47.900;8.146;2022-09-09T11:14:07;23.40;99.90
36594;DHT22;22603;47.900;8.146;2022-09-09T11:16:59;23.30;99.90
36594;DHT22;22603;47.900;8.146;2022-09-09T11:19:47;23.10;99.90
36594;DHT22;22603;47.900;8.146;2022-09-09T11:22:39;23.20;99.90
36594;DHT22;22603;47.900;8.146;2022-09-09T11:25:33;22.10;99.90
36594;DHT22;22603;47.900;8.146;2022-09-09T11:28:32;21.90;99.90
36594;DHT22;22603;47.900;8.146;2022-09-09T11:31:38;21.40;99.90
36594;DHT22;22603;47.900;8.146;2022-09-09T11:34:40;20.10;99.90
36594;DHT22;22603;47.900;8.146;2022-09-09T11:37:51;19.10;99.90
36594;DHT22;22603;47.900;8.146;2022-09-09T11:40:41;18.60;99.90
36594;DHT22;22603;47.900;8.146;2022-09-09T11:43:31;17.60;99.90
36594;DHT22;22603;47.900;8.146;2022-09-09T11:46:31;17.80;99.90
36594;DHT22;22603;47.900;8.146;2022-09-09T11:49:27;19.00;99.90
36594;DHT22;22603;47.900;8.146;2022-09-09T11:52:22;20.20;99.90
36594;DHT22;22603;47.900;8.146;2022-09-09T11:55:25;20.80;99.90
36594;DHT22;22603;47.900;8.146;2022-09-09T11:58:17;21.90;99.90
36594;DHT22;22603;47.900;8.146;2022-09-09T12:01:14;22.60;99.90
36594;DHT22;22603;47.900;8.146;2022-09-09T12:04:13;23.30;99.90
36594;DHT22;22603;47.900;8.146;2022-09-09T12:07:29;23.30;99.90
36594;DHT22;22603;47.900;8.146;2022-09-09T12:10:25;23.60;99.90
36594;DHT22;22603;47.900;8.146;2022-09-09T12:13:17;23.20;99.90
36594;DHT22;22603;47.900;8.146;2022-09-09T12:16:05;22.90;99.90
36594;DHT22;22603;47.900;8.146;2022-09-09T12:18:51;21.90;99.90
36594;DHT22;22603;47.900;8.146;2022-09-09T12:21:47;21.20;99.90
36594;DHT22;22603;47.900;8.146;2022-09-09T12:24:40;21.80;99.90
36594;DHT22;22603;47.900;8.146;2022-09-09T12:27:35;22.00;99.90
36594;DHT22;22603;47.900;8.146;2022-09-09T12:30:29;21.30;99.90
36594;DHT22;22603;47.900;8.146;2022-09-09T12:33:19;20.80;99.90
36594;DHT22;22603;47.900;8.146;2022-09-09T12:36:11;20.20;99.90
36594;DHT22;22603;47.900;8.146;2022-09-09T12:39:10;19.90;99.90
36594;DHT22;22603;47.900;8.146;2022-09-09T12:41:57;19.20;99.90
36594;DHT22;22603;47.900;8.146;2022-09-09T12:44:55;20.00;99.90
36594;DHT22;22603;47.900;8.146;2022-09-09T12:47:46;20.60;99.90
36594;DHT22;22603;47.900;8.146;2022-09-09T12:50:36;21.20;99.90
36594;DHT22;22603;47.900;8.146;2022-09-09T12:53:26;21.60;99.90
36594;DHT22;22603;47.900;8.146;2022-09-09T12:56:21;21.90;99.90
36594;DHT22;22603;47.900;8.146;2022-09-09T12:59:23;22.00;99.90
36594;DHT22;22603;47.900;8.146;2022-09-09T13:02:19;21.70;99.90
36594;DHT22;22603;47.900;8.146;2022-09-09T13:05:16;21.50;99.90
36594;DHT22;22603;47.900;8.146;2022-09-09T13:08:04;20.60;99.90
36594;DHT22;22603;47.900;8.146;2022-09-09T13:10:55;20.00;99.90
36594;DHT22;22603;47.900;8.146;2022-09-09T13:13:51;19.30;99.90
36594;DHT22;22603;47.900;8.146;2022-09-09T13:16:39;19.30;99.90
36594;DHT22;22603;47.900;8.146;2022-09-09T13:19:32;19.60;99.90
36594;DHT22;22603;47.900;8.146;2022-09-09T13:22:26;19.90;99.90
36594;DHT22;22603;47.900;8.146;2022-09-09T13:25:20;19.90;99.90
36594;DHT22;22603;47.900;8.146;2022-09-09T13:28:20;20.30;99.90
36594;DHT22;22603;47.900;8.146;2022-09-09T13:31:20;20.30;99.90
36594;DHT22;22603;47.900;8.146;2022-09-09T13:34:12;19.90;99.90
36594;DHT22;22603;47.900;8.146;2022-09-09T13:37:02;19.60;99.90
36594;DHT22;22603;47.900;8.146;2022-09-09T13:39:52;19.10;99.90
36594;DHT22;22603;47.900;8.146;2022-09-09T13:42:41;18.50;99.90
36594;DHT22;22603;47.900;8.146;2022-09-09T13:45:29;17.90;99.90
36594;DHT22;22603;47.900;8.146;2022-09-09T13:48:18;17.30;99.90
36594;DHT22;22603;47.900;8.146;2022-09-09T13:54:10;16.00;99.90
36594;DHT22;22603;47.900;8.146;2022-09-09T13:56:57;15.80;99.90
36594;DHT22;22603;47.900;8.146;2022-09-09T13:59:44;15.80;99.90
36594;DHT22;22603;47.900;8.146;2022-09-09T14:02:50;16.00;99.90
36594;DHT22;22603;47.900;8.146;2022-09-09T14:05:37;16.20;99.90
36594;DHT22;22603;47.900;8.146;2022-09-09T14:08:26;16.70;99.90
36594;DHT22;22603;47.900;8.146;2022-09-09T14:11:24;17.00;99.90
36594;DHT22;22603;47.900;8.146;2022-09-09T14:14:11;17.10;99.90
36594;DHT22;22603;47.900;8.146;2022-09-09T14:16:58;17.30;99.90
36594;DHT22;22603;47.900;8.146;2022-09-09T14:19:48;17.50;99.90
36594;DHT22;22603;47.900;8.146;2022-09-09T14:22:36;17.40;99.90
36594;DHT22;22603;47.900;8.146;2022-09-09T14:25:24;17.60;99.90
36594;DHT22;22603;47.900;8.146;2022-09-09T14:28:13;17.60;99.90
36594;DHT22;22603;47.900;8.146;2022-09-09T14:31:01;17.60;99.90
36594;DHT22;22603;47.900;8.146;2022-09-09T14:33:48;17.40;99.90
36594;DHT22;22603;47.900;8.146;2022-09-09T14:36:36;17.60;99.90
36594;DHT22;22603;47.900;8.146;2022-09-09T14:39:30;17.60;99.90
36594;DHT22;22603;47.900;8.146;2022-09-09T14:42:18;17.30;99.90
36594;DHT22;22603;47.900;8.146;2022-09-09T14:45:07;17.50;99.90
36594;DHT22;22603;47.900;8.146;2022-09-09T14:47:55;17.60;99.90
36594;DHT22;22603;47.900;8.146;2022-09-09T14:50:42;17.70;99.90
36594;DHT22;22603;47.900;8.146;2022-09-09T14:53:29;17.70;99.90
36594;DHT22;22603;47.900;8.146;2022-09-09T14:56:17;17.80;99.90
36594;DHT22;22603;47.900;8.146;2022-09-09T14:59:04;18.00;99.90
36594;DHT22;22603;47.900;8.146;2022-09-09T15:01:52;17.20;99.90
36594;DHT22;22603;47.900;8.146;2022-09-09T15:04:39;17.30;99.90
36594;DHT22;22603;47.900;8.146;2022-09-09T15:07:26;17.60;99.90
36594;DHT22;22603;47.900;8.146;2022-09-09T15:10:14;17.30;99.90
36594;DHT22;22603;47.900;8.146;2022-09-09T15:13:02;17.50;99.90
36594;DHT22;22603;47.900;8.146;2022-09-09T15:15:50;17.90;99.90
36594;DHT22;22603;47.900;8.146;2022-09-09T15:18:39;18.00;99.90
36594;DHT22;22603;47.900;8.146;2022-09-09T15:21:34;17.80;99.90
36594;DHT22;22603;47.900;8.146;2022-09-09T15:24:36;17.80;99.90
36594;DHT22;22603;47.900;8.146;2022-09-09T15:27:23;17.80;99.90
36594;DHT22;22603;47.900;8.146;2022-09-09T15:30:11;17.90;99.90
36594;DHT22;22603;47.900;8.146;2022-09-09T15:32:58;17.90;99.90
36594;DHT22;22603;47.900;8.146;2022-09-09T15:35:46;17.90;99.90
36594;DHT22;22603;47.900;8.146;2022-09-09T15:38:33;17.90;99.90
36594;DHT22;22603;47.900;8.146;2022-09-09T15:41:21;17.60;99.90
36594;DHT22;22603;47.900;8.146;2022-09-09T15:44:09;17.60;99.90
36594;DHT22;22603;47.900;8.146;2022-09-09T15:46:57;17.30;99.90
36594;DHT22;22603;47.900;8.146;2022-09-09T15:49:44;17.00;99.90
36594;DHT22;22603;47.900;8.146;2022-09-09T15:52:32;16.90;99.90
36594;DHT22;22603;47.900;8.146;2022-09-09T15:55:19;16.70;99.90
36594;DHT22;22603;47.900;8.146;2022-09-09T15:58:07;16.50;99.90
36594;DHT22;22603;47.900;8.146;2022-09-09T16:00:54;16.30;99.90
36594;DHT22;22603;47.900;8.146;2022-09-09T16:03:42;16.20;99.90
36594;DHT22;22603;47.900;8.146;2022-09-09T16:06:32;16.10;99.90
36594;DHT22;22603;47.900;8.146;2022-09-09T16:09:21;16.10;99.90
36594;DHT22;22603;47.900;8.146;2022-09-09T16:12:09;16.00;99.90
36594;DHT22;22603;47.900;8.146;2022-09-09T16:14:58;15.90;99.90
36594;DHT22;22603;47.900;8.146;2022-09-09T16:17:45;15.90;99.90
36594;DHT22;22603;47.900;8.146;2022-09-09T16:20:32;15.90;99.90
36594;DHT22;22603;47.900;8.146;2022-09-09T16:23:19;15.80;99.90
36594;DHT22;22603;47.900;8.146;2022-09-09T16:26:10;15.80;99.90
36594;DHT22;22603;47.900;8.146;2022-09-09T16:28:57;15.80;99.90
36594;DHT22;22603;47.900;8.146;2022-09-09T16:31:45;15.70;99.90
36594;DHT22;22603;47.900;8.146;2022-09-09T16:34:34;15.70;99.90
36594;DHT22;22603;47.900;8.146;2022-09-09T16:37:20;15.60;99.90
36594;DHT22;22603;47.900;8.146;2022-09-09T16:40:08;15.30;99.90
36594;DHT22;22603;47.900;8.146;2022-09-09T16:42:57;14.90;99.90
36594;DHT22;22603;47.900;8.146;2022-09-09T16:45:43;14.60;99.90
36594;DHT22;22603;47.900;8.146;2022-09-09T16:48:31;14.30;99.90
36594;DHT22;22603;47.900;8.146;2022-09-09T16:51:20;14.00;99.90
36594;DHT22;22603;47.900;8.146;2022-09-09T16:54:10;13.90;99.90
36594;DHT22;22603;47.900;8.146;2022-09-09T16:56:59;13.70;99.90
36594;DHT22;22603;47.900;8.146;2022-09-09T16:59:47;13.50;99.90
36594;DHT22;22603;47.900;8.146;2022-09-09T17:02:34;13.60;99.90
36594;DHT22;22603;47.900;8.146;2022-09-09T17:05:21;13.50;99.90
36594;DHT22;22603;47.900;8.146;2022-09-09T17:08:08;13.50;99.90
36594;DHT22;22603;47.900;8.146;2022-09-09T17:10:55;13.50;99.90
36594;DHT22;22603;47.900;8.146;2022-09-09T17:13:42;13.50;99.90
36594;DHT22;22603;47.900;8.146;2022-09-09T17:16:32;13.50;99.90
36594;DHT22;22603;47.900;8.146;2022-09-09T17:19:20;13.50;99.90
36594;DHT22;22603;47.900;8.146;2022-09-09T17:22:07;13.50;99.90
36594;DHT22;22603;47.900;8.146;2022-09-09T17:25:03;13.40;99.90
36594;DHT22;22603;47.900;8.146;2022-09-09T17:27:49;13.40;99.90
36594;DHT22;22603;47.900;8.146;2022-09-09T17:30:36;13.30;99.90
36594;DHT22;22603;47.900;8.146;2022-09-09T17:33:25;13.30;99.90
36594;DHT22;22603;47.900;8.146;2022-09-09T17:36:16;13.20;99.90
36594;DHT22;22603;47.900;8.146;2022-09-09T17:39:04;13.20;99.90
36594;DHT22;22603;47.900;8.146;2022-09-09T17:41:52;13.10;99.90
36594;DHT22;22603;47.900;8.146;2022-09-09T17:44:40;12.90;99.90
36594;DHT22;22603;47.900;8.146;2022-09-09T17:47:27;12.90;99.90
36594;DHT22;22603;47.900;8.146;2022-09-09T17:50:17;12.70;99.90
36594;DHT22;22603;47.900;8.146;2022-09-09T17:53:04;12.70;99.90
36594;DHT22;22603;47.900;8.146;2022-09-09T17:55:51;12.50;99.90
36594;DHT22;22603;47.900;8.146;2022-09-09T17:58:38;12.40;99.90
36594;DHT22;22603;47.900;8.146;2022-09-09T18:01:27;12.30;99.90
36594;DHT22;22603;47.900;8.146;2022-09-09T18:04:16;12.30;99.90
36594;DHT22;22603;47.900;8.146;2022-09-09T18:07:04;12.20;99.90
36594;DHT22;22603;47.900;8.146;2022-09-09T18:09:51;12.20;99.90